createdAt,value
2022-10-14T00:00:23.835Z,19.45
2022-10-14T00:02:50.134Z,18.60
2022-10-14T00:05:16.492Z,19.23
2022-10-14T00:07:44.355Z,16.50
2022-10-14T00:10:10.648Z,18.00
2022-10-14T00:12:36.939Z,19.07
2022-10-14T00:15:03.582Z,18.63
2022-10-14T00:17:29.902Z,18.80
2022-10-14T00:19:56.199Z,20.83
2022-10-14T00:22:22.495Z,16.40
2022-10-14T00:24:48.814Z,18.67
2022-10-14T00:27:15.212Z,16.10
2022-10-14T00:29:41.486Z,17.57
2022-10-14T00:32:08.228Z,18.03
2022-10-14T00:34:35.240Z,17.40
2022-10-14T00:37:01.682Z,19.77
2022-10-14T00:39:27.970Z,17.27
2022-10-14T00:41:54.264Z,17.90
2022-10-14T00:44:20.455Z,17.73
2022-10-14T00:46:48.203Z,18.37
2022-10-14T00:49:22.254Z,17.03
2022-10-14T00:52:15.336Z,16.07
2022-10-14T00:54:45.878Z,17.50
2022-10-14T00:57:12.298Z,16.93
2022-10-14T00:59:38.799Z,17.40
2022-10-14T01:02:05.343Z,16.80
2022-10-14T01:04:31.715Z,17.00
2022-10-14T01:07:16.081Z,15.77
2022-10-14T01:09:54.580Z,16.33
2022-10-14T01:12:39.627Z,16.13
2022-10-14T01:15:18.599Z,16.77
2022-10-14T01:18:07.351Z,14.43
2022-10-14T01:20:44.296Z,16.33
2022-10-14T01:23:49.179Z,17.15
2022-10-14T01:26:25.392Z,16.83
2022-10-14T01:29:10.268Z,15.57
2022-10-14T01:31:38.452Z,17.23
2022-10-14T01:34:07.288Z,15.50
2022-10-14T01:36:37.443Z,14.63
2022-10-14T01:39:11.350Z,15.97
2022-10-14T01:41:45.466Z,15.00
2022-10-14T01:44:12.725Z,14.03
2022-10-14T01:46:40.714Z,15.37
2022-10-14T01:49:14.733Z,15.97
2022-10-14T01:51:48.216Z,14.40
2022-10-14T01:54:18.682Z,13.93
2022-10-14T01:56:46.882Z,13.93
2022-10-14T01:59:14.436Z,15.30
2022-10-14T02:01:40.798Z,14.00
2022-10-14T02:04:20.815Z,15.10
2022-10-14T02:07:12.229Z,14.73
2022-10-14T02:10:13.782Z,13.83
2022-10-14T02:12:57.044Z,13.03
2022-10-14T02:15:41.571Z,13.90
2022-10-14T02:18:38.562Z,15.40
2022-10-14T02:21:18.032Z,14.77
2022-10-14T02:23:48.327Z,14.97
2022-10-14T02:26:15.879Z,14.40
2022-10-14T02:28:44.041Z,12.93
2022-10-14T02:31:13.712Z,15.23
2022-10-14T02:33:42.532Z,14.10
2022-10-14T02:36:10.435Z,12.27
2022-10-14T02:38:38.088Z,12.47
2022-10-14T02:41:06.676Z,12.57
2022-10-14T02:43:33.154Z,13.27
2022-10-14T02:46:01.955Z,12.97
2022-10-14T02:48:28.511Z,12.13
2022-10-14T02:50:54.823Z,11.70
2022-10-14T02:53:21.220Z,13.43
2022-10-14T02:55:47.592Z,12.50
2022-10-14T02:58:13.915Z,12.70
2022-10-14T03:00:40.389Z,12.70
2022-10-14T03:03:06.830Z,13.57
2022-10-14T03:05:33.123Z,13.57
2022-10-14T03:07:59.420Z,12.63
2022-10-14T03:10:25.758Z,13.97
2022-10-14T03:12:52.059Z,12.70
2022-10-14T03:15:18.357Z,11.63
2022-10-14T03:17:44.733Z,12.83
2022-10-14T03:20:11.356Z,11.87
2022-10-14T03:22:37.678Z,11.80
2022-10-14T03:25:04.227Z,13.10
2022-10-14T03:27:30.519Z,12.70
2022-10-14T03:29:56.833Z,11.20
2022-10-14T03:32:23.469Z,11.80
2022-10-14T03:34:49.904Z,12.60
2022-10-14T03:37:16.220Z,12.03
2022-10-14T03:39:42.524Z,13.03
2022-10-14T03:42:08.867Z,11.67
2022-10-14T03:44:35.178Z,11.30
2022-10-14T03:47:01.494Z,11.50
2022-10-14T03:49:27.822Z,11.70
2022-10-14T03:51:54.128Z,11.70
2022-10-14T03:54:20.459Z,11.07
2022-10-14T03:56:46.744Z,11.00
2022-10-14T03:59:13.054Z,12.07
2022-10-14T04:01:39.385Z,11.27
2022-10-14T04:04:05.796Z,12.13
2022-10-14T04:06:32.149Z,11.60
2022-10-14T04:08:58.442Z,12.30
2022-10-14T04:11:24.794Z,11.23
2022-10-14T04:13:51.197Z,11.75
2022-10-14T04:16:17.498Z,10.60
2022-10-14T04:18:43.794Z,11.20
2022-10-14T04:21:12.018Z,12.13
2022-10-14T04:23:38.454Z,11.10
2022-10-14T04:26:06.317Z,10.67
2022-10-14T04:28:33.547Z,9.57
2022-10-14T04:30:59.877Z,10.73
2022-10-14T04:33:26.661Z,11.27
2022-10-14T04:36:04.269Z,10.53
2022-10-14T04:38:31.110Z,9.80
2022-10-14T04:40:57.739Z,12.30
2022-10-14T04:43:24.238Z,9.87
2022-10-14T04:45:50.648Z,10.87
2022-10-14T04:48:18.030Z,11.77
2022-10-14T04:50:44.344Z,9.73
2022-10-14T04:53:13.685Z,11.73
2022-10-14T04:55:40.405Z,11.77
2022-10-14T04:58:06.726Z,11.00
2022-10-14T05:00:33.062Z,9.23
2022-10-14T05:02:59.356Z,10.27
2022-10-14T05:05:25.686Z,10.67
2022-10-14T05:07:51.982Z,10.90
2022-10-14T05:10:18.445Z,11.50
2022-10-14T05:12:44.759Z,8.17
2022-10-14T05:15:12.539Z,9.47
2022-10-14T05:17:39.367Z,7.80
2022-10-14T05:20:06.598Z,12.80
2022-10-14T05:22:32.887Z,7.17
2022-10-14T05:24:59.186Z,8.13
2022-10-14T05:27:25.516Z,9.23
2022-10-14T05:29:51.820Z,10.97
2022-10-14T05:32:18.197Z,10.00
2022-10-14T05:34:44.517Z,8.43
2022-10-14T05:37:10.906Z,9.47
2022-10-14T05:39:37.182Z,8.80
2022-10-14T05:42:03.650Z,8.50
2022-10-14T05:44:29.943Z,12.37
2022-10-14T05:46:56.238Z,9.13
2022-10-14T05:49:22.652Z,12.40
2022-10-14T05:51:49.148Z,9.90
2022-10-14T05:54:15.435Z,11.10
2022-10-14T05:56:42.009Z,12.77
2022-10-14T05:59:10.104Z,10.20
2022-10-14T06:01:38.015Z,11.53
2022-10-14T06:04:04.565Z,12.00
2022-10-14T06:06:30.932Z,13.47
2022-10-14T06:08:57.487Z,13.50
2022-10-14T06:11:23.805Z,13.40
2022-10-14T06:13:50.161Z,11.73
2022-10-14T06:16:16.536Z,10.87
2022-10-14T06:18:42.827Z,9.03
2022-10-14T06:21:09.701Z,7.13
2022-10-14T06:23:36.017Z,9.13
2022-10-14T06:26:06.586Z,9.83
2022-10-14T06:28:33.099Z,8.23
2022-10-14T06:30:59.526Z,9.43
2022-10-14T06:33:28.162Z,8.47
2022-10-14T06:35:54.460Z,9.30
2022-10-14T06:38:20.816Z,10.37
2022-10-14T06:40:50.344Z,9.57
2022-10-14T06:43:16.647Z,10.87
2022-10-14T06:45:43.014Z,9.07
2022-10-14T06:48:09.367Z,9.20
2022-10-14T06:50:38.939Z,9.23
2022-10-14T06:53:05.804Z,9.00
2022-10-14T06:55:32.379Z,9.03
2022-10-14T06:57:58.763Z,13.63
2022-10-14T07:00:25.206Z,13.43
2022-10-14T07:02:51.505Z,16.70
2022-10-14T07:05:18.008Z,15.67
2022-10-14T07:07:44.425Z,15.80
2022-10-14T07:10:10.794Z,14.27
2022-10-14T07:12:37.304Z,15.98
2022-10-14T07:15:04.919Z,16.17
2022-10-14T07:17:31.614Z,17.03
2022-10-14T07:19:58.121Z,16.63
2022-10-14T07:22:24.977Z,13.37
2022-10-14T07:24:51.508Z,17.57
2022-10-14T07:27:20.702Z,14.93
2022-10-14T07:29:47.342Z,15.07
2022-10-14T07:32:13.911Z,15.40
2022-10-14T07:34:40.237Z,17.50
2022-10-14T07:37:06.678Z,16.37
2022-10-14T07:39:33.876Z,13.40
2022-10-14T07:42:00.354Z,11.20
2022-10-14T07:44:27.535Z,12.67
2022-10-14T07:46:54.582Z,14.63
2022-10-14T07:49:21.479Z,11.37
2022-10-14T07:51:48.512Z,17.40
2022-10-14T07:54:18.251Z,21.13
2022-10-14T07:56:45.329Z,12.37
2022-10-14T07:59:11.934Z,13.13
2022-10-14T08:01:38.402Z,14.07
2022-10-14T08:04:05.356Z,12.90
2022-10-14T08:06:31.666Z,14.00
2022-10-14T08:08:57.964Z,14.33
2022-10-14T08:11:27.083Z,11.87
2022-10-14T08:13:53.396Z,9.70
2022-10-14T08:16:22.074Z,13.03
2022-10-14T08:18:48.489Z,13.60
2022-10-14T08:21:15.179Z,11.60
2022-10-14T08:23:41.752Z,11.10
2022-10-14T08:26:21.056Z,11.45
2022-10-14T08:28:48.747Z,12.55
2022-10-14T08:31:15.552Z,12.30
2022-10-14T08:33:41.859Z,11.40
2022-10-14T08:36:08.773Z,12.70
2022-10-14T08:38:35.137Z,12.45
2022-10-14T08:41:16.347Z,12.33
2022-10-14T08:43:52.644Z,11.98
2022-10-14T08:46:24.450Z,13.07
2022-10-14T08:48:55.547Z,11.73
2022-10-14T08:51:22.203Z,12.85
2022-10-14T08:53:59.722Z,12.20
2022-10-14T08:56:26.167Z,12.63
2022-10-14T08:58:54.379Z,15.40
2022-10-14T09:01:31.550Z,13.90
2022-10-14T09:04:04.308Z,12.45
2022-10-14T09:06:35.642Z,13.80
2022-10-14T09:09:08.952Z,11.88
2022-10-14T09:11:40.702Z,9.18
2022-10-14T09:14:09.919Z,10.65
2022-10-14T09:16:38.651Z,11.35
2022-10-14T09:19:12.187Z,12.93
2022-10-14T09:21:59.325Z,17.77
2022-10-14T09:24:32.299Z,17.42
2022-10-14T09:27:04.724Z,12.43
2022-10-14T09:29:34.250Z,16.45
2022-10-14T09:32:09.628Z,17.60
2022-10-14T09:34:41.160Z,19.17
2022-10-14T09:37:30.129Z,17.88
2022-10-14T09:40:00.237Z,17.02
2022-10-14T09:42:36.246Z,20.15
2022-10-14T09:47:45.041Z,22.70
2022-10-14T09:50:22.898Z,19.13
2022-10-14T09:52:52.327Z,16.65
2022-10-14T09:55:20.283Z,17.52
2022-10-14T09:57:47.122Z,18.67
2022-10-14T10:00:26.178Z,19.35
2022-10-14T10:02:53.081Z,17.77
2022-10-14T10:05:24.100Z,19.70
2022-10-14T10:08:19.589Z,18.88
2022-10-14T10:11:08.216Z,18.05
2022-10-14T10:13:41.305Z,12.70
2022-10-14T10:16:18.684Z,14.13
2022-10-14T10:18:44.997Z,14.77
2022-10-14T10:21:24.704Z,15.48
2022-10-14T10:23:57.408Z,18.88
2022-10-14T10:26:26.956Z,16.70
2022-10-14T10:28:54.459Z,12.95
2022-10-14T10:34:38.256Z,14.27
2022-10-14T10:37:09.088Z,16.98
2022-10-14T10:39:49.695Z,13.57
2022-10-14T10:42:21.864Z,14.02
2022-10-14T10:45:00.680Z,11.40
2022-10-14T10:47:41.120Z,15.25
2022-10-14T10:50:23.766Z,14.27
2022-10-14T10:53:01.224Z,17.05
2022-10-14T10:56:02.383Z,11.65
2022-10-14T10:58:41.934Z,12.52
2022-10-14T11:01:26.123Z,13.18
2022-10-14T11:04:17.330Z,11.13
2022-10-14T11:07:31.631Z,11.38
2022-10-14T11:10:22.700Z,12.57
2022-10-14T11:13:04.497Z,12.13
2022-10-14T11:15:58.384Z,14.50
2022-10-14T11:18:47.527Z,13.73
2022-10-14T11:21:21.997Z,11.55
2022-10-14T11:24:07.144Z,12.38
2022-10-14T11:26:51.538Z,15.55
2022-10-14T11:29:22.848Z,18.58
2022-10-14T11:32:00.438Z,16.42
2022-10-14T11:35:07.999Z,16.45
2022-10-14T11:37:54.363Z,11.40
2022-10-14T11:40:35.015Z,11.70
2022-10-14T11:43:27.138Z,12.18
2022-10-14T11:46:02.063Z,11.65
2022-10-14T11:48:46.695Z,11.05
2022-10-14T11:51:19.667Z,11.98
2022-10-14T11:54:04.358Z,11.85
2022-10-14T11:57:00.700Z,13.52
2022-10-14T11:59:47.199Z,9.20
2022-10-14T12:02:26.683Z,11.77
2022-10-14T12:05:03.191Z,11.90
2022-10-14T12:07:37.557Z,10.25
2022-10-14T12:10:27.668Z,10.20
2022-10-14T12:12:54.929Z,10.63
2022-10-14T12:15:23.331Z,13.10
2022-10-14T12:18:01.899Z,12.13
2022-10-14T12:20:45.034Z,13.43
2022-10-14T12:23:16.738Z,11.85
2022-10-14T12:25:57.094Z,11.90
2022-10-14T12:28:23.663Z,11.52
2022-10-14T12:30:51.546Z,9.70
2022-10-14T12:33:22.620Z,9.90
2022-10-14T12:36:01.756Z,11.50
2022-10-14T12:38:29.504Z,10.82
2022-10-14T12:41:38.273Z,9.40
2022-10-14T12:44:05.371Z,8.77
2022-10-14T12:46:31.851Z,9.15
2022-10-14T12:48:59.608Z,10.00
2022-10-14T12:51:27.231Z,9.27
2022-10-14T12:54:12.794Z,8.70
2022-10-14T12:56:43.550Z,9.40
2022-10-14T12:59:25.374Z,10.27
2022-10-14T13:02:04.612Z,8.57
2022-10-14T13:04:31.679Z,8.40
2022-10-14T13:07:39.005Z,8.50
2022-10-14T13:10:25.658Z,8.63
2022-10-14T13:12:52.050Z,7.90
2022-10-14T13:15:34.122Z,9.52
2022-10-14T13:18:31.658Z,9.27
2022-10-14T13:20:57.976Z,8.88
2022-10-14T13:23:29.759Z,8.73
2022-10-14T13:26:26.580Z,8.88
2022-10-14T13:29:40.726Z,13.77
2022-10-14T13:32:28.527Z,10.20
2022-10-14T13:35:09.082Z,8.98
2022-10-14T13:38:03.981Z,24.20
2022-10-14T13:40:36.508Z,8.05
2022-10-14T13:43:27.153Z,8.23
2022-10-14T13:45:57.775Z,8.02
2022-10-14T13:48:35.345Z,7.50
2022-10-14T13:51:31.492Z,7.32
2022-10-14T13:54:09.522Z,9.38
2022-10-14T13:56:35.843Z,9.45
2022-10-14T13:59:03.599Z,6.88
2022-10-14T14:01:36.813Z,7.10
2022-10-14T14:04:03.260Z,7.38
2022-10-14T14:06:35.966Z,7.03
2022-10-14T14:09:20.467Z,8.13
2022-10-14T14:11:47.732Z,6.68
2022-10-14T14:14:19.845Z,7.68
2022-10-14T14:16:54.734Z,7.47
2022-10-14T14:19:37.997Z,7.35
2022-10-14T14:22:27.184Z,6.70
2022-10-14T14:25:31.884Z,5.50
2022-10-14T14:28:00.675Z,6.25
2022-10-14T14:30:29.577Z,7.60
2022-10-14T14:32:58.696Z,6.45
2022-10-14T14:35:25.307Z,5.75
2022-10-14T14:37:59.222Z,6.32
2022-10-14T14:40:30.026Z,6.22
2022-10-14T14:42:59.646Z,6.28
2022-10-14T14:45:32.302Z,6.18
2022-10-14T14:48:02.181Z,6.68
2022-10-14T14:50:32.960Z,6.47
2022-10-14T14:53:03.474Z,6.03
2022-10-14T14:55:51.984Z,10.48
2022-10-14T14:58:21.509Z,6.57
2022-10-14T15:00:49.806Z,6.38
2022-10-14T15:03:16.354Z,6.32
2022-10-14T15:05:50.346Z,7.72
2022-10-14T15:08:24.746Z,5.55
2022-10-14T15:10:53.639Z,6.97
2022-10-14T15:13:43.769Z,6.53
2022-10-14T15:16:10.093Z,5.70
2022-10-14T15:18:37.685Z,6.72
2022-10-14T15:21:20.330Z,6.25
2022-10-14T15:23:49.575Z,5.53
2022-10-14T15:26:23.081Z,6.97
2022-10-14T15:32:14.584Z,5.95
2022-10-14T15:34:41.116Z,5.13
2022-10-14T15:37:12.814Z,6.30
2022-10-14T15:39:39.442Z,7.50
2022-10-14T15:42:11.368Z,6.45
2022-10-14T15:44:37.648Z,9.57
2022-10-14T15:47:23.088Z,9.35
2022-10-14T15:49:49.430Z,5.10
2022-10-14T15:52:18.451Z,5.75
2022-10-14T15:54:47.702Z,5.70
2022-10-14T15:57:16.656Z,5.70
2022-10-14T15:59:43.319Z,5.07
2022-10-14T16:02:17.915Z,4.90
2022-10-14T16:05:00.579Z,4.05
2022-10-14T16:07:30.571Z,4.97
2022-10-14T16:09:56.948Z,6.88
2022-10-14T16:12:23.317Z,7.10
2022-10-14T16:14:49.618Z,5.43
2022-10-14T16:17:16.039Z,5.35
2022-10-14T16:19:42.329Z,5.22
2022-10-14T16:22:09.288Z,5.45
2022-10-14T16:24:35.623Z,4.72
2022-10-14T16:27:01.926Z,5.55
2022-10-14T16:29:28.211Z,5.63
2022-10-14T16:31:55.230Z,7.28
2022-10-14T16:34:23.338Z,5.70
2022-10-14T16:36:50.461Z,4.88
2022-10-14T16:39:18.695Z,5.45
2022-10-14T16:41:45.314Z,5.03
2022-10-14T16:44:24.205Z,4.88
2022-10-14T16:47:13.090Z,4.65
2022-10-14T16:49:40.310Z,5.13
2022-10-14T16:52:07.494Z,4.75
2022-10-14T16:54:33.835Z,6.28
2022-10-14T16:57:00.163Z,5.70
2022-10-14T16:59:28.213Z,5.10
2022-10-14T17:01:54.833Z,5.82
2022-10-14T17:04:21.334Z,5.72
2022-10-14T17:06:48.158Z,4.97
2022-10-14T17:09:15.756Z,4.22
2022-10-14T17:11:42.392Z,5.70
2022-10-14T17:14:11.861Z,5.80
2022-10-14T17:16:38.358Z,4.32
2022-10-14T17:19:04.908Z,6.72
2022-10-14T17:21:31.555Z,5.68
2022-10-14T17:24:01.992Z,4.00
2022-10-14T17:26:30.470Z,3.70
2022-10-14T17:28:57.481Z,5.25
2022-10-14T17:31:24.397Z,3.92
2022-10-14T17:33:51.262Z,7.22
2022-10-14T17:36:19.275Z,4.93
2022-10-14T17:38:46.855Z,6.68
2022-10-14T17:41:13.914Z,4.45
2022-10-14T17:43:40.271Z,4.57
2022-10-14T17:48:42.186Z,5.22
2022-10-14T17:51:12.483Z,4.75
2022-10-14T17:53:39.604Z,4.63
2022-10-14T17:56:07.911Z,5.82
2022-10-14T17:58:34.193Z,4.95
2022-10-14T18:01:11.080Z,5.63
2022-10-14T18:03:40.842Z,6.63
2022-10-14T18:06:15.578Z,4.38
2022-10-14T18:08:44.106Z,4.38
2022-10-14T18:11:11.427Z,4.05
2022-10-14T18:13:37.898Z,3.38
2022-10-14T18:16:12.305Z,5.00
2022-10-14T18:18:39.346Z,3.67
2022-10-14T18:21:05.934Z,3.40
2022-10-14T18:23:33.601Z,6.03
2022-10-14T18:26:10.920Z,4.22
2022-10-14T18:28:42.127Z,3.78
2022-10-14T18:31:14.034Z,3.97
2022-10-14T18:33:41.197Z,4.15
2022-10-14T18:36:08.859Z,3.45
2022-10-14T18:38:35.681Z,4.03
2022-10-14T18:41:07.023Z,3.70
2022-10-14T18:43:33.673Z,3.90
2022-10-14T18:46:09.466Z,4.22
2022-10-14T18:48:36.639Z,3.65
2022-10-14T18:51:04.157Z,3.58
2022-10-14T18:53:31.948Z,4.68
2022-10-14T18:56:01.588Z,3.85
2022-10-14T18:58:28.215Z,3.55
2022-10-14T19:00:54.515Z,3.50
2022-10-14T19:03:20.854Z,3.65
2022-10-14T19:05:47.144Z,2.90
2022-10-14T19:10:45.055Z,4.05
2022-10-14T19:13:12.106Z,3.95
2022-10-14T19:15:46.094Z,4.13
2022-10-14T19:18:16.370Z,3.75
2022-10-14T19:20:45.198Z,3.92
2022-10-14T19:23:11.510Z,3.15
2022-10-14T19:25:37.861Z,3.35
2022-10-14T19:28:04.282Z,3.92
2022-10-14T19:30:30.626Z,3.38
2022-10-14T19:32:56.931Z,2.95
2022-10-14T19:35:23.229Z,3.53
2022-10-14T19:37:49.571Z,4.13
2022-10-14T19:40:19.816Z,3.00
2022-10-14T19:42:49.276Z,3.35
2022-10-14T19:45:15.710Z,4.10
2022-10-14T19:47:42.065Z,2.75
2022-10-14T19:50:08.863Z,3.72
2022-10-14T19:52:35.349Z,3.42
2022-10-14T19:55:01.824Z,3.17
2022-10-14T19:57:28.182Z,3.35
2022-10-14T19:59:54.508Z,2.60
2022-10-14T20:02:20.806Z,2.80
2022-10-14T20:04:47.134Z,3.30
2022-10-14T20:07:13.431Z,2.75
2022-10-14T20:09:39.765Z,2.75
2022-10-14T20:12:06.939Z,2.85
2022-10-14T20:14:33.246Z,3.30
2022-10-14T20:16:59.675Z,3.35
2022-10-14T20:19:25.966Z,3.17
2022-10-14T20:21:52.335Z,2.38
2022-10-14T20:24:18.638Z,2.58
2022-10-14T20:26:44.924Z,3.05
2022-10-14T20:29:11.460Z,3.85
2022-10-14T20:31:37.805Z,2.65
2022-10-14T20:34:08.471Z,2.60
2022-10-14T20:36:37.505Z,2.55
2022-10-14T20:39:03.796Z,3.28
2022-10-14T20:41:30.120Z,2.92
2022-10-14T20:43:57.181Z,2.42
2022-10-14T20:46:24.624Z,2.67
2022-10-14T20:48:55.790Z,2.92
2022-10-14T20:51:22.635Z,2.88
2022-10-14T20:53:48.922Z,2.58
2022-10-14T20:56:15.363Z,2.92
2022-10-14T20:58:41.844Z,2.45
2022-10-14T21:01:12.256Z,3.45
2022-10-14T21:03:38.901Z,2.50
2022-10-14T21:06:11.163Z,2.90
2022-10-14T21:08:37.834Z,2.90
2022-10-14T21:11:09.217Z,3.47
2022-10-14T21:13:38.582Z,2.58
2022-10-14T21:16:20.330Z,2.65
2022-10-14T21:18:49.114Z,3.25
2022-10-14T21:21:17.151Z,3.22
2022-10-14T21:23:43.849Z,2.63
2022-10-14T21:26:10.289Z,2.57
2022-10-14T21:28:36.879Z,3.83
2022-10-14T21:31:07.838Z,2.40
2022-10-14T21:33:34.587Z,2.92
2022-10-14T21:36:08.704Z,2.30
2022-10-14T21:38:35.487Z,2.30
2022-10-14T21:41:02.985Z,2.30
2022-10-14T21:43:30.382Z,2.47
2022-10-14T21:46:01.742Z,2.35
2022-10-14T21:48:28.017Z,2.65
2022-10-14T21:51:08.542Z,4.10
2022-10-14T21:53:35.116Z,2.22
2022-10-14T21:56:01.633Z,3.57
2022-10-14T21:58:28.063Z,2.97
2022-10-14T22:01:31.342Z,3.00
2022-10-14T22:04:00.247Z,2.65
2022-10-14T22:06:27.489Z,2.50
2022-10-14T22:08:55.816Z,2.60
2022-10-14T22:11:25.597Z,3.00
2022-10-14T22:13:52.754Z,2.80
2022-10-14T22:16:19.319Z,2.85
2022-10-14T22:18:47.574Z,2.70
2022-10-14T22:21:15.886Z,3.38
2022-10-14T22:23:42.249Z,2.67
2022-10-14T22:26:11.376Z,2.20
2022-10-14T22:28:38.039Z,2.67
2022-10-14T22:31:09.633Z,2.83
2022-10-14T22:33:37.726Z,2.95
2022-10-14T22:36:14.081Z,2.25
2022-10-14T22:38:42.145Z,3.05
2022-10-14T22:41:09.534Z,2.67
2022-10-14T22:43:36.290Z,2.13
2022-10-14T22:46:05.778Z,2.03
2022-10-14T22:48:32.333Z,2.25
2022-10-14T22:51:03.658Z,2.28
2022-10-14T22:53:30.123Z,2.47
2022-10-14T22:55:56.539Z,2.15
2022-10-14T22:58:22.870Z,2.95
2022-10-14T23:00:49.171Z,2.70
2022-10-14T23:03:15.500Z,3.05
2022-10-14T23:05:42.091Z,2.08
2022-10-14T23:08:11.178Z,2.60
2022-10-14T23:10:38.526Z,2.25
2022-10-14T23:13:05.511Z,2.47
2022-10-14T23:15:32.359Z,2.17
2022-10-14T23:17:58.659Z,2.00
2022-10-14T23:20:24.975Z,2.65
2022-10-14T23:22:51.259Z,2.55
2022-10-14T23:25:17.906Z,1.88
2022-10-14T23:27:44.299Z,2.55
2022-10-14T23:30:10.998Z,2.58
2022-10-14T23:32:37.474Z,2.20
2022-10-14T23:35:03.960Z,2.05
2022-10-14T23:37:30.315Z,2.97
2022-10-14T23:39:56.637Z,2.33
2022-10-14T23:42:22.922Z,1.90
2022-10-14T23:44:49.202Z,2.63
2022-10-14T23:47:15.612Z,1.92
2022-10-14T23:49:41.906Z,2.72
2022-10-14T23:52:08.218Z,1.67
2022-10-14T23:54:34.499Z,1.90
2022-10-14T23:57:00.802Z,1.98
2022-10-14T23:59:27.101Z,2.28
